Time;durP1;ratioP1;P1;durP2;ratioP2;P2;SDS_P1;SDS_P2;PMS_P1;PMS_P2;Temp;Humidity;BMP_temperature;BMP_pressure;BME280_temperature;BME280_humidity;BME280_pressure;Samples;Min_cycle;Max_cycle;Signal;HPM_P1;HPM_P2
2022/10/22 00:00:12;;;;;;;4.82;4.51;;;;;;;6.45;64.89;101918.49;456449;116;922540;-77
2022/10/22 00:01:15;;;;;;;4.96;4.60;;;;;;;6.45;64.87;101921.20;456451;116;922552;-77
2022/10/22 00:02:21;;;;;;;5.37;4.97;;;;;;;6.47;64.89;101921.91;456661;116;922689;-75
2022/10/22 00:03:24;;;;;;;5.35;4.97;;;;;;;6.48;64.88;101914.64;456404;115;922913;-77
2022/10/22 00:04:27;;;;;;;5.78;5.34;;;;;;;6.49;64.91;101914.49;456649;116;922536;-77
2022/10/22 00:05:31;;;;;;;4.96;4.66;;;;;;;6.50;64.87;101915.34;455621;116;922626;-76
2022/10/22 00:06:34;;;;;;;5.10;4.75;;;;;;;6.52;64.96;101916.02;456628;116;922845;-76
2022/10/22 00:07:37;;;;;;;5.36;4.96;;;;;;;6.54;64.95;101911.31;456683;116;922563;-77
2022/10/22 00:08:41;;;;;;;5.58;5.18;;;;;;;6.56;64.88;101912.02;456487;116;922573;-78
2022/10/22 00:09:44;;;;;;;5.62;5.22;;;;;;;6.57;64.86;101911.84;456703;116;922562;-78
2022/10/22 00:10:47;;;;;;;5.36;4.96;;;;;;;6.58;64.75;101910.83;456651;116;922936;-77
2022/10/22 00:11:50;;;;;;;5.63;5.23;;;;;;;6.57;64.70;101903.70;456755;116;922471;-77
2022/10/22 00:12:53;;;;;;;5.55;4.94;;;;;;;6.59;64.78;101911.69;456796;116;922590;-77
2022/10/22 00:13:57;;;;;;;4.74;4.42;;;;;;;6.60;64.70;101897.99;456674;115;922419;-78
2022/10/22 00:15:00;;;;;;;4.83;4.48;;;;;;;6.62;64.59;101903.23;456692;116;922505;-77
2022/10/22 00:16:03;;;;;;;4.62;4.24;;;;;;;6.62;64.62;101895.10;455033;116;922990;-77
2022/10/22 00:17:06;;;;;;;4.50;4.20;;;;;;;6.63;64.47;101896.80;450489;117;923136;-77
2022/10/22 00:18:11;;;;;;;4.87;4.47;;;;;;;6.61;64.42;101896.13;450033;117;923151;-77
2022/10/22 00:19:14;;;;;;;4.66;4.31;;;;;;;6.63;64.46;101894.09;450440;117;922764;-76
2022/10/22 00:20:17;;;;;;;4.63;4.33;;;;;;;6.62;64.34;101895.95;450445;117;922500;-77
2022/10/22 00:21:20;;;;;;;4.28;3.97;;;;;;;6.62;64.32;101906.80;450433;117;922945;-77
2022/10/22 00:22:23;;;;;;;5.03;4.64;;;;;;;6.61;64.23;101899.70;450482;117;922466;-78
2022/10/22 00:23:26;;;;;;;4.12;3.83;;;;;;;6.60;64.17;101905.27;450455;117;923082;-77
2022/10/22 00:24:29;;;;;;;3.47;3.26;;;;;;;6.59;64.13;101908.98;450457;117;922467;-77
2022/10/22 00:25:34;;;;;;;3.58;3.27;;;;;;;6.57;64.13;101901.00;450452;117;922611;-77
2022/10/22 00:26:38;;;;;;;3.66;3.37;;;;;;;6.57;64.15;101903.70;450283;117;922647;-77
2022/10/22 00:27:41;;;;;;;3.45;3.21;;;;;;;6.56;64.00;101898.47;450290;117;922559;-77
2022/10/22 00:28:45;;;;;;;2.68;2.48;;;;;;;6.54;63.91;101892.34;450366;117;923034;-78
2022/10/22 00:29:48;;;;;;;3.49;3.19;;;;;;;6.51;63.77;101892.63;452186;115;922619;-76
2022/10/22 00:30:58;;;;;;;3.04;2.84;;;;;;;6.49;63.67;101894.67;458214;115;922576;-77
2022/10/22 00:32:02;;;;;;;3.18;2.98;;;;;;;6.44;63.59;101886.16;462354;113;922746;-76
2022/10/22 00:33:05;;;;;;;3.71;3.41;;;;;;;6.41;63.68;101890.02;466996;113;922802;-77
2022/10/22 00:34:08;;;;;;;5.04;2.86;;;;;;;6.39;63.70;101886.64;462218;113;922803;-77
2022/10/22 00:35:11;;;;;;;3.17;2.78;;;;;;;6.39;63.78;101886.64;458392;115;922703;-76
2022/10/22 00:36:16;;;;;;;2.89;2.69;;;;;;;6.39;63.77;101888.48;458114;115;922488;-76
2022/10/22 00:37:18;;;;;;;3.34;3.07;;;;;;;6.37;63.72;101885.08;458257;115;930394;-76
2022/10/22 00:38:21;;;;;;;3.16;2.88;;;;;;;6.35;63.67;101887.08;458367;115;923087;-77
2022/10/22 00:39:26;;;;;;;3.09;2.84;;;;;;;6.33;63.67;101880.98;458347;115;923000;-76
2022/10/22 00:40:29;;;;;;;3.56;3.29;;;;;;;6.32;63.60;101887.41;458196;115;922508;-76
2022/10/22 00:41:32;;;;;;;2.51;2.31;;;;;;;6.29;63.64;101885.84;458435;115;922584;-78
2022/10/22 00:42:36;;;;;;;2.71;2.41;;;;;;;6.26;63.56;101884.31;458286;115;922576;-79
2022/10/22 00:43:59;;;;;;;2.82;2.62;;;;;;;6.24;63.59;101888.16;458354;114;922520;-76
2022/10/22 00:45:17;;;;;;;4.09;2.61;;;;;;;6.21;63.52;101889.34;458158;115;922514;-78
2022/10/22 00:46:20;;;;;;;3.06;2.86;;;;;;;6.16;63.51;101878.13;458150;115;922508;-77
2022/10/22 00:47:25;;;;;;;3.01;2.81;;;;;;;6.12;63.66;101887.54;458370;115;922881;-77
2022/10/22 00:48:30;;;;;;;2.81;2.61;;;;;;;6.10;63.80;101883.30;458280;115;922499;-76
2022/10/22 00:49:33;;;;;;;2.92;2.72;;;;;;;6.08;63.85;101886.16;458165;115;922568;-75
2022/10/22 00:50:46;;;;;;;3.21;2.93;;;;;;;6.06;63.80;101882.77;458272;115;922463;-77
2022/10/22 00:51:49;;;;;;;2.90;2.67;;;;;;;6.05;63.87;101891.03;458248;115;922572;-76
2022/10/22 00:52:54;;;;;;;2.96;2.76;;;;;;;6.01;63.86;101882.34;458435;115;922505;-77
2022/10/22 00:54:03;;;;;;;3.05;2.76;;;;;;;5.99;63.94;101878.97;458208;115;923197;-77
2022/10/22 00:55:07;;;;;;;2.69;2.52;;;;;;;5.98;64.04;101879.96;458133;115;922985;-77
2022/10/22 00:56:11;;;;;;;2.62;2.42;;;;;;;5.98;64.12;101884.52;458343;115;922523;-77
2022/10/22 00:57:15;;;;;;;2.90;2.70;;;;;;;5.96;64.15;101895.50;458349;115;923015;-77
2022/10/22 00:58:21;;;;;;;2.91;2.64;;;;;;;5.94;64.17;101893.96;458210;115;922521;-78
2022/10/22 00:59:24;;;;;;;3.25;2.61;;;;;;;5.92;64.14;101894.11;458129;115;930451;-78
2022/10/22 01:00:27;;;;;;;2.83;2.62;;;;;;;5.89;64.13;101899.84;458406;115;923042;-77
2022/10/22 01:01:31;;;;;;;3.33;2.74;;;;;;;5.87;64.15;101896.42;458403;115;922534;-77
2022/10/22 01:02:34;;;;;;;3.16;2.96;;;;;;;5.85;64.20;101898.38;458299;115;922472;-77
2022/10/22 01:03:37;;;;;;;3.83;3.46;;;;;;;5.83;64.23;101895.00;458330;115;922487;-77
2022/10/22 01:04:40;;;;;;;4.79;3.19;;;;;;;5.82;64.24;101896.00;458377;115;922823;-77
2022/10/22 01:05:55;;;;;;;3.31;2.97;;;;;;;5.81;64.41;101891.58;458403;115;922840;-76
2022/10/22 01:06:58;;;;;;;3.29;3.09;;;;;;;5.79;64.35;101889.02;458205;115;922430;-76
2022/10/22 01:08:01;;;;;;;3.74;3.42;;;;;;;5.80;64.53;101885.31;458419;115;922807;-77
2022/10/22 01:09:13;;;;;;;4.38;3.37;;;;;;;5.79;64.60;101889.02;458323;115;922758;-77
2022/10/22 01:10:31;;;;;;;3.75;3.45;;;;;;;5.80;64.65;101884.45;458147;115;922870;-77
2022/10/22 01:11:47;;;;;;;3.79;3.49;;;;;;;5.80;64.71;101884.45;457985;115;922501;-76
2022/10/22 01:13:13;;;;;;;3.79;3.46;;;;;;;5.77;64.73;101893.75;458104;115;922416;-76
2022/10/22 01:14:22;;;;;;;4.33;3.97;;;;;;;5.75;64.75;101890.33;457662;115;922471;-76
2022/10/22 01:15:41;;;;;;;3.91;3.64;;;;;;;5.72;64.85;101887.09;458158;115;922495;-76
2022/10/22 01:17:07;;;;;;;4.46;4.16;;;;;;;5.70;64.91;101889.08;457011;116;922473;-77
2022/10/22 01:18:16;;;;;;;4.23;3.93;;;;;;;5.68;64.95;101896.52;457056;116;922543;-76
2022/10/22 01:19:56;;;;;;;5.11;4.68;;;;;;;5.64;65.00;101897.80;456845;115;923524;-76
2022/10/22 01:21:08;;;;;;;4.43;4.14;;;;;;;5.62;64.99;101891.71;457048;116;922598;-77
2022/10/22 01:22:21;;;;;;;5.41;5.01;;;;;;;5.57;65.05;101902.95;456945;116;922571;-76
2022/10/22 01:23:47;;;;;;;4.48;4.18;;;;;;;5.55;65.11;101898.72;456921;115;922688;-77
2022/10/22 01:25:08;;;;;;;4.41;4.10;;;;;;;5.52;65.16;101891.73;457052;116;923018;-77
2022/10/22 01:26:21;;;;;;;4.75;4.36;;;;;;;5.50;65.32;101893.76;457069;116;923017;-75
2022/10/22 01:27:39;;;;;;;4.83;4.48;;;;;;;5.48;65.32;101892.19;457038;116;922461;-75
2022/10/22 01:29:01;;;;;;;4.76;4.37;;;;;;;5.48;65.40;101892.19;457022;116;922805;-76
2022/10/22 01:30:06;;;;;;;4.57;4.27;;;;;;;5.46;65.47;101901.30;457190;116;922668;-76
2022/10/22 01:31:12;;;;;;;4.06;3.79;;;;;;;5.46;65.50;101900.45;457163;116;922979;-78
2022/10/22 01:32:24;;;;;;;4.74;4.40;;;;;;;5.44;65.60;101897.91;457191;116;922776;-76
2022/10/22 01:33:29;;;;;;;4.64;4.27;;;;;;;5.46;65.56;101904.01;457094;115;922844;-75
2022/10/22 01:34:33;;;;;;;4.58;4.26;;;;;;;5.45;65.55;101902.33;460432;115;922517;-76
2022/10/22 01:35:39;;;;;;;4.59;4.22;;;;;;;5.45;65.62;101907.73;460599;115;922898;-77
2022/10/22 01:36:44;;;;;;;4.12;3.82;;;;;;;5.45;65.52;101904.18;460485;115;922550;-79
2022/10/22 01:37:59;;;;;;;4.37;4.07;;;;;;;5.46;65.54;101911.27;460528;115;922657;-77
2022/10/22 01:39:04;;;;;;;4.71;4.41;;;;;;;5.45;65.56;101901.48;460377;115;922476;-77
2022/10/22 01:40:09;;;;;;;4.33;4.00;;;;;;;5.45;65.56;101907.73;460433;115;922549;-77
2022/10/22 01:41:13;;;;;;;4.93;4.56;;;;;;;5.44;65.50;101903.33;460502;115;922551;-76
2022/10/22 01:42:16;;;;;;;4.26;3.86;;;;;;;5.44;65.41;101906.03;460584;115;922516;-76
2022/10/22 01:43:19;;;;;;;4.10;3.80;;;;;;;5.44;65.42;101906.03;460584;115;930838;-76
2022/10/22 01:44:28;;;;;;;4.20;3.86;;;;;;;5.44;65.48;101906.03;460629;115;922829;-76
2022/10/22 01:45:34;;;;;;;4.04;3.74;;;;;;;5.44;65.48;101903.33;460447;115;922916;-77
2022/10/22 01:46:38;;;;;;;3.68;3.38;;;;;;;5.43;65.37;101909.73;459818;115;922514;-77
2022/10/22 01:48:01;;;;;;;3.82;3.52;;;;;;;5.43;65.35;101909.73;460575;115;922792;-78
2022/10/22 01:49:19;;;;;;;3.62;3.38;;;;;;;5.43;65.31;101906.17;460454;115;923350;-78
2022/10/22 01:50:43;;;;;;;4.62;4.24;;;;;;;5.40;65.33;101899.19;459613;115;922642;-79
2022/10/22 01:52:12;;;;;;;3.24;3.04;;;;;;;5.38;65.34;101912.03;459468;115;922927;-77
2022/10/22 01:53:33;;;;;;;3.88;3.58;;;;;;;5.38;65.34;101912.03;457181;116;922651;-78
2022/10/22 01:54:50;;;;;;;;;;;;;;;5.36;65.32;101910.46;460975;115;922524;-78
2022/10/22 01:56:02;;;;;;;3.51;3.25;;;;;;;5.33;65.47;101911.63;456362;115;922317;-77
2022/10/22 01:57:24;;;;;;;3.61;3.31;;;;;;;5.29;65.61;101912.90;457227;116;922637;-77
2022/10/22 01:58:34;;;;;;;4.26;3.96;;;;;;;5.28;65.76;101913.92;456526;115;923083;-77
2022/10/22 01:59:46;;;;;;;3.83;3.53;;;;;;;5.28;65.89;101915.77;430214;123;922892;-76
2022/10/22 02:01:03;;;;;;;3.76;3.46;;;;;;;5.27;65.94;101904.10;477082;110;946772;-76
2022/10/22 02:02:26;;;;;;;3.29;3.09;;;;;;;5.27;65.94;101904.10;464805;113;922565;-77
2022/10/22 02:03:35;;;;;;;3.50;3.22;;;;;;;5.28;65.95;101913.92;464626;114;922811;-77
2022/10/22 02:04:51;;;;;;;3.54;3.24;;;;;;;5.27;65.88;101904.10;456849;115;922680;-77
2022/10/22 02:05:58;;;;;;;3.54;3.27;;;;;;;5.27;65.92;101901.40;457287;115;922405;-77
2022/10/22 02:07:04;;;;;;;3.88;3.57;;;;;;;5.28;66.01;101910.37;457324;116;922563;-77
2022/10/22 02:08:11;;;;;;;3.69;3.39;;;;;;;5.29;65.95;101898.55;457299;116;923495;-77
2022/10/22 02:09:17;;;;;;;3.46;3.16;;;;;;;5.29;65.94;101902.08;457322;114;922939;-77
2022/10/22 02:10:21;;;;;;;3.16;2.93;;;;;;;5.32;65.98;101906.36;457356;116;922511;-77
2022/10/22 02:11:25;;;;;;;3.63;3.33;;;;;;;5.33;66.00;101902.66;457403;116;922557;-77
2022/10/22 02:12:31;;;;;;;3.93;3.55;;;;;;;5.34;66.08;101902.52;457373;115;930598;-77
2022/10/22 02:13:37;;;;;;;3.43;3.13;;;;;;;5.36;66.08;101895.09;457231;114;930421;-76
2022/10/22 02:14:43;;;;;;;3.71;3.41;;;;;;;5.38;66.06;101906.62;457284;115;922586;-77
2022/10/22 02:15:49;;;;;;;4.91;3.73;;;;;;;5.39;66.00;101902.92;457258;116;922563;-77
2022/10/22 02:16:53;;;;;;;4.04;3.78;;;;;;;5.40;65.83;101911.89;457153;116;922656;-77
2022/10/22 02:17:58;;;;;;;3.44;3.14;;;;;;;5.39;65.82;101911.04;457282;116;922678;-78
2022/10/22 02:19:05;;;;;;;3.70;3.47;;;;;;;5.38;65.77;101909.33;457158;116;922574;-78
2022/10/22 02:20:15;;;;;;;3.76;3.50;;;;;;;5.35;65.69;101911.45;457187;116;922975;-76
2022/10/22 02:21:19;;;;;;;3.46;3.22;;;;;;;5.35;65.69;101911.45;456333;116;922585;-76
2022/10/22 02:22:23;;;;;;;3.80;3.51;;;;;;;5.34;65.86;101904.37;457360;116;923049;-77
2022/10/22 02:23:27;;;;;;;3.85;3.55;;;;;;;5.34;65.80;101904.37;457203;116;922819;-77
2022/10/22 02:24:30;;;;;;;3.92;3.62;;;;;;;5.34;65.83;101907.08;457379;116;922421;-77
2022/10/22 02:25:37;;;;;;;5.06;4.66;;;;;;;5.34;65.89;101902.52;457475;115;922575;-76
2022/10/22 02:26:49;;;;;;;5.38;4.38;;;;;;;5.34;65.82;101907.08;457344;116;922999;-76
2022/10/22 02:28:21;;;;;;;4.53;4.19;;;;;;;5.33;65.86;101914.33;456898;115;922582;-77
2022/10/22 02:29:31;;;;;;;4.25;3.95;;;;;;;5.32;65.78;101915.33;457278;116;922892;-77
2022/10/22 02:30:37;;;;;;;4.81;4.29;;;;;;;5.29;65.89;101917.48;459060;115;922545;-78
2022/10/22 02:31:43;;;;;;;4.38;4.02;;;;;;;5.27;65.91;101919.47;459196;115;922607;-77
2022/10/22 02:32:52;;;;;;;4.83;4.43;;;;;;;5.25;65.90;101919.61;457291;116;922792;-76
2022/10/22 02:33:58;;;;;;;5.15;4.75;;;;;;;5.24;65.98;101923.31;460269;113;922665;-77
2022/10/22 02:35:02;;;;;;;4.99;4.66;;;;;;;5.24;66.04;101919.75;466373;113;922462;-76
2022/10/22 02:36:07;;;;;;;6.21;5.71;;;;;;;5.23;65.99;101921.63;466489;113;922581;-77
2022/10/22 02:37:10;;;;;;;5.45;5.01;;;;;;;5.23;66.01;101923.48;466484;113;922491;-77
2022/10/22 02:38:13;;;;;;;6.74;6.29;;;;;;;5.23;66.08;101929.74;466550;113;930425;-76
2022/10/22 02:39:19;;;;;;;5.92;5.36;;;;;;;5.23;66.09;101924.34;466534;113;922478;-77
2022/10/22 02:40:23;;;;;;;6.48;5.88;;;;;;;5.23;66.10;101921.63;466421;113;922899;-76
2022/10/22 02:41:27;;;;;;;7.18;6.71;;;;;;;5.22;66.07;101927.18;466524;113;923334;-77
2022/10/22 02:42:30;;;;;;;7.12;6.62;;;;;;;5.22;66.11;101919.06;466538;113;922474;-76
2022/10/22 02:43:39;;;;;;;7.62;7.12;;;;;;;5.21;66.10;101930.88;466594;113;922866;-76
2022/10/22 02:44:42;;;;;;;8.24;7.59;;;;;;;5.20;66.03;101931.87;466417;113;922411;-77
2022/10/22 02:45:46;;;;;;;8.44;7.83;;;;;;;5.18;66.11;101929.34;466565;113;922573;-77
2022/10/22 02:46:49;;;;;;;9.22;8.52;;;;;;;5.17;66.12;101942.99;466544;113;922614;-78
2022/10/22 02:47:52;;;;;;;8.61;8.01;;;;;;;5.15;66.13;101935.02;466480;113;930479;-78
2022/10/22 02:48:55;;;;;;;9.05;8.28;;;;;;;5.13;66.21;101939.70;466550;113;922820;-78
2022/10/22 02:49:58;;;;;;;9.39;8.69;;;;;;;5.12;66.30;101940.73;466607;113;922646;-77
2022/10/22 02:51:01;;;;;;;8.06;7.36;;;;;;;5.11;66.32;101938.16;466556;113;923049;-77
2022/10/22 02:52:04;;;;;;;8.31;7.62;;;;;;;5.10;66.35;101931.91;460080;113;922626;-76
2022/10/22 02:53:07;;;;;;;8.54;7.90;;;;;;;5.10;66.42;101937.31;455783;116;922909;-77
2022/10/22 02:54:10;;;;;;;8.82;8.13;;;;;;;5.11;66.45;101932.76;455755;116;922572;-77
2022/10/22 02:55:13;;;;;;;8.49;7.81;;;;;;;5.09;66.49;101935.60;455794;116;922545;-77
2022/10/22 02:56:17;;;;;;;8.01;7.37;;;;;;;5.08;66.57;101927.63;455779;116;922601;-77
2022/10/22 02:57:19;;;;;;;8.59;7.79;;;;;;;5.07;66.61;101936.77;455780;116;922551;-77
2022/10/22 02:58:23;;;;;;;8.20;7.44;;;;;;;5.07;66.69;101940.33;455653;116;923211;-78
2022/10/22 02:59:26;;;;;;;7.64;7.04;;;;;;;5.06;66.75;101929.65;455771;116;922456;-77
2022/10/22 03:00:29;;;;;;;7.33;6.72;;;;;;;5.06;66.83;101941.31;455759;116;922568;-78
2022/10/22 03:01:32;;;;;;;7.62;7.03;;;;;;;5.06;66.85;101943.16;455748;116;922527;-76
2022/10/22 03:02:35;;;;;;;7.46;6.89;;;;;;;5.04;66.93;101937.89;455777;116;922941;-76
2022/10/22 03:03:38;;;;;;;8.19;7.47;;;;;;;5.04;66.92;101940.59;455721;116;922581;-77
2022/10/22 03:04:41;;;;;;;7.89;7.19;;;;;;;5.04;67.05;101938.75;455725;116;922566;-77
2022/10/22 03:05:44;;;;;;;7.70;6.81;;;;;;;5.04;67.07;101938.75;455662;116;922502;-77
2022/10/22 03:06:48;;;;;;;8.34;7.57;;;;;;;5.05;67.11;101934.20;455757;116;922549;-77
2022/10/22 03:07:50;;;;;;;7.30;6.77;;;;;;;5.04;67.18;101937.89;455722;116;922533;-78
2022/10/22 03:08:54;;;;;;;7.89;7.26;;;;;;;5.04;67.20;101933.34;455739;116;922579;-77
2022/10/22 03:09:57;;;;;;;8.18;7.54;;;;;;;5.05;67.21;101939.61;455773;116;922899;-78
2022/10/22 03:11:00;;;;;;;8.41;7.72;;;;;;;5.07;67.25;101928.66;455751;116;922640;-77
2022/10/22 03:12:03;;;;;;;9.17;8.47;;;;;;;5.09;67.28;101934.75;455676;116;922599;-79
2022/10/22 03:13:06;;;;;;;9.43;8.73;;;;;;;5.08;67.32;101931.19;455652;116;922980;-78
2022/10/22 03:14:09;;;;;;;10.29;9.49;;;;;;;5.09;67.28;101927.48;455645;114;922894;-77
2022/10/22 03:15:12;;;;;;;10.65;9.75;;;;;;;5.10;67.36;101928.34;455667;116;922562;-77
2022/10/22 03:16:16;;;;;;;11.02;10.24;;;;;;;5.12;67.36;101934.47;456329;116;922699;-77
2022/10/22 03:17:19;;;;;;;10.96;10.08;;;;;;;5.11;67.43;101939.02;457339;115;922941;-79
2022/10/22 03:18:21;;;;;;;10.64;9.83;;;;;;;5.12;67.41;101939.88;457377;115;922510;-77
2022/10/22 03:19:24;;;;;;;11.09;10.20;;;;;;;5.12;67.49;101929.92;457391;115;922541;-79
2022/10/22 03:20:28;;;;;;;10.36;9.56;;;;;;;5.13;67.40;101938.89;457345;116;922554;-78
2022/10/22 03:21:43;;;;;;;10.66;9.80;;;;;;;5.12;67.38;101940.73;457361;116;922461;-78
2022/10/22 03:22:46;;;;;;;9.94;9.06;;;;;;;5.12;67.36;101942.58;451006;116;922819;-78
2022/10/22 03:23:49;;;;;;;9.25;8.38;;;;;;;5.10;67.32;101940.02;457369;114;922513;-78
2022/10/22 03:24:57;;;;;;;9.20;8.40;;;;;;;5.10;67.37;101936.45;457451;115;922974;-78
2022/10/22 03:26:00;;;;;;;9.83;8.91;;;;;;;5.10;67.40;101941.86;457183;116;922596;-80
2022/10/22 03:27:03;;;;;;;8.64;7.60;;;;;;;5.10;67.35;101937.31;457429;115;922570;-76
2022/10/22 03:28:09;;;;;;;9.36;8.53;;;;;;;5.09;67.37;101941.01;457397;115;922417;-78
2022/10/22 03:29:14;;;;;;;8.69;7.74;;;;;;;5.09;67.33;101943.71;457161;114;922517;-75
2022/10/22 03:30:17;;;;;;;8.96;8.22;;;;;;;5.09;67.31;101945.56;459208;115;922479;-77
2022/10/22 03:31:20;;;;;;;8.48;7.78;;;;;;;5.08;67.31;101943.84;460208;115;922534;-77
2022/10/22 03:32:23;;;;;;;8.98;8.23;;;;;;;5.06;67.22;101941.31;457454;115;922970;-78
2022/10/22 03:33:26;;;;;;;9.02;8.24;;;;;;;5.06;67.25;101944.02;457322;115;922557;-77
2022/10/22 03:34:29;;;;;;;8.70;7.96;;;;;;;5.05;67.21;101947.71;465819;113;922514;-76
2022/10/22 03:35:34;;;;;;;8.38;7.69;;;;;;;5.03;67.26;101952.41;466444;113;922443;-77
2022/10/22 03:36:39;;;;;;;8.45;7.74;;;;;;;5.02;67.30;101950.69;465902;113;922677;-78
2022/10/22 03:37:42;;;;;;;10.16;9.36;;;;;;;5.01;67.28;101955.27;466376;113;922742;-77
2022/10/22 03:38:46;;;;;;;9.47;8.59;;;;;;;5.01;67.23;101955.27;466362;113;930520;-78
2022/10/22 03:39:49;;;;;;;8.54;7.87;;;;;;;5.00;67.21;101952.70;466387;113;930462;-77
2022/10/22 03:40:53;;;;;;;9.96;9.14;;;;;;;4.98;67.18;101960.09;466377;113;922445;-77
2022/10/22 03:41:56;;;;;;;9.18;8.48;;;;;;;4.97;67.19;101963.79;466454;113;930997;-77
2022/10/22 03:42:59;;;;;;;9.67;8.56;;;;;;;4.96;67.39;101960.23;466428;113;922677;-77
2022/10/22 03:44:03;;;;;;;9.47;8.75;;;;;;;4.96;67.39;101960.23;466417;113;930572;-77
2022/10/22 03:45:07;;;;;;;9.60;8.76;;;;;;;4.96;67.25;101962.11;466360;113;922608;-76
2022/10/22 03:46:11;;;;;;;9.06;8.30;;;;;;;4.95;67.33;101960.40;466368;113;922555;-77
2022/10/22 03:47:14;;;;;;;9.54;8.76;;;;;;;4.96;67.28;101956.70;466517;113;922797;-77
2022/10/22 03:48:17;;;;;;;8.56;7.90;;;;;;;4.97;67.24;101963.79;466473;113;922449;-76
2022/10/22 03:49:19;;;;;;;9.08;8.38;;;;;;;4.95;67.32;101960.40;466488;113;922745;-77
2022/10/22 03:50:22;;;;;;;10.15;8.93;;;;;;;4.95;67.29;101955.84;466503;113;922704;-77
2022/10/22 03:51:26;;;;;;;9.38;8.58;;;;;;;4.95;67.32;101961.25;466448;113;922821;-77
2022/10/22 03:52:33;;;;;;;9.21;8.44;;;;;;;4.96;67.26;101964.81;453642;117;922962;-76
2022/10/22 03:53:36;;;;;;;9.72;9.01;;;;;;;4.94;67.18;101953.28;453446;115;922987;-76
2022/10/22 03:54:41;;;;;;;9.48;8.68;;;;;;;4.93;67.13;101954.27;453697;117;922374;-77
2022/10/22 03:55:43;;;;;;;9.51;8.78;;;;;;;4.91;67.13;101958.96;453539;117;922679;-76
2022/10/22 03:56:46;;;;;;;9.87;8.28;;;;;;;4.90;67.14;101962.69;453608;117;930442;-76
2022/10/22 03:57:49;;;;;;;9.10;8.36;;;;;;;4.89;67.17;101958.27;453694;117;922429;-78
2022/10/22 03:58:57;;;;;;;9.13;8.39;;;;;;;4.88;67.24;101959.27;453686;115;922715;-77
2022/10/22 04:00:01;;;;;;;10.14;8.81;;;;;;;4.87;67.24;101957.55;453528;117;923122;-77
2022/10/22 04:01:05;;;;;;;9.42;8.64;;;;;;;4.85;67.22;101957.69;453641;117;922505;-77
2022/10/22 04:02:10;;;;;;;9.76;8.96;;;;;;;4.86;67.25;101955.84;453500;117;922504;-76
2022/10/22 04:03:13;;;;;;;10.42;9.62;;;;;;;4.83;67.29;101954.30;453448;117;930621;-76
2022/10/22 04:04:16;;;;;;;9.77;9.00;;;;;;;4.84;67.31;101958.71;453672;115;922570;-77
2022/10/22 04:05:19;;;;;;;10.24;9.33;;;;;;;4.84;67.41;101963.26;453716;116;922651;-77
2022/10/22 04:06:22;;;;;;;9.75;9.05;;;;;;;4.84;67.36;101963.26;453694;116;922485;-77
2022/10/22 04:07:25;;;;;;;9.99;9.19;;;;;;;4.83;67.27;101958.84;456784;116;922604;-77
2022/10/22 04:08:28;;;;;;;9.93;9.09;;;;;;;4.82;67.35;101960.69;456720;116;923016;-77
2022/10/22 04:09:32;;;;;;;10.32;9.46;;;;;;;4.82;67.29;101960.69;453721;116;922623;-77
2022/10/22 04:10:35;;;;;;;10.82;9.94;;;;;;;4.82;67.33;101955.29;453620;116;922583;-78
2022/10/22 04:11:38;;;;;;;9.47;8.75;;;;;;;4.83;67.34;101961.55;453696;116;922487;-78
2022/10/22 04:12:41;;;;;;;9.84;9.03;;;;;;;4.82;67.33;101959.84;453739;117;922521;-76
2022/10/22 04:13:44;;;;;;;10.10;9.30;;;;;;;4.81;67.36;101958.98;453693;115;922596;-77
2022/10/22 04:14:47;;;;;;;9.76;8.96;;;;;;;4.82;67.41;101954.43;453680;117;922487;-76
2022/10/22 04:15:50;;;;;;;9.99;9.19;;;;;;;4.83;67.42;101957.00;453655;117;922509;-77
2022/10/22 04:16:54;;;;;;;10.29;9.49;;;;;;;4.83;67.41;101958.84;454745;116;922619;-77
2022/10/22 04:17:57;;;;;;;10.34;9.44;;;;;;;4.83;67.42;101951.59;457339;115;922410;-77
2022/10/22 04:19:00;;;;;;;10.21;9.39;;;;;;;4.83;67.43;101957.00;457383;114;923186;-77
2022/10/22 04:20:03;;;;;;;9.64;8.91;;;;;;;4.83;67.43;101954.30;457443;115;922943;-77
2022/10/22 04:21:08;;;;;;;13.30;9.20;;;;;;;4.84;67.47;101963.26;457282;116;922735;-77
2022/10/22 04:22:11;;;;;;;10.24;9.34;;;;;;;4.83;67.48;101959.70;450219;117;922595;-78
2022/10/22 04:23:14;;;;;;;9.96;9.08;;;;;;;4.85;67.59;101959.56;450496;116;930626;-79
2022/10/22 04:24:17;;;;;;;9.94;9.13;;;;;;;4.87;67.54;101957.55;457346;115;923380;-77
2022/10/22 04:25:19;;;;;;;9.40;8.58;;;;;;;4.87;67.51;101962.95;457372;115;922550;-77
2022/10/22 04:26:23;;;;;;;9.39;8.59;;;;;;;4.87;67.58;101965.66;457372;116;922636;-77
2022/10/22 04:27:31;;;;;;;8.94;8.14;;;;;;;4.85;67.54;101956.86;457394;115;922501;-77
2022/10/22 04:28:34;;;;;;;9.37;8.54;;;;;;;4.85;67.63;101956.86;457188;116;922471;-77
2022/10/22 04:29:37;;;;;;;8.85;8.14;;;;;;;4.83;67.54;101954.30;457468;115;922761;-77
2022/10/22 04:30:40;;;;;;;9.29;8.56;;;;;;;4.85;67.52;101959.56;461284;115;922517;-77
2022/10/22 04:31:43;;;;;;;8.99;8.31;;;;;;;4.84;67.54;101958.71;460214;115;923416;-77
2022/10/22 04:32:46;;;;;;;9.00;8.34;;;;;;;4.85;67.57;101959.56;457411;116;922975;-77
2022/10/22 04:33:57;;;;;;;13.58;10.04;;;;;;;4.85;67.66;101959.56;455438;114;922744;-77
2022/10/22 04:35:00;;;;;;;9.22;8.41;;;;;;;4.85;67.64;101967.67;449444;118;922537;-77
2022/10/22 04:36:17;;;;;;;9.40;8.48;;;;;;;4.87;67.71;101968.36;449474;118;922554;-78
2022/10/22 04:37:20;;;;;;;8.87;8.08;;;;;;;4.88;67.84;101967.38;449350;118;922609;-77
2022/10/22 04:38:23;;;;;;;9.01;8.19;;;;;;;4.89;67.76;101971.78;449544;117;922585;-77
2022/10/22 04:39:26;;;;;;;8.52;7.84;;;;;;;4.89;67.76;101971.78;449484;117;923018;-76
2022/10/22 04:40:29;;;;;;;9.23;8.44;;;;;;;4.89;67.78;101978.05;449494;117;922708;-78
2022/10/22 04:41:35;;;;;;;9.53;8.73;;;;;;;4.89;67.84;101972.64;449492;117;922635;-77
2022/10/22 04:42:38;;;;;;;9.26;8.57;;;;;;;4.91;67.86;101976.03;449343;118;922627;-76
2022/10/22 04:43:41;;;;;;;9.65;8.93;;;;;;;4.92;67.89;101969.63;449538;116;922557;-77
2022/10/22 04:44:45;;;;;;;9.66;8.86;;;;;;;4.94;67.87;101978.46;449475;117;922689;-78
2022/10/22 04:45:48;;;;;;;9.86;9.06;;;;;;;4.95;67.96;101966.66;449419;117;930666;-77
2022/10/22 04:46:51;;;;;;;10.30;9.52;;;;;;;4.96;67.87;101975.63;449477;117;922599;-77
2022/10/22 04:47:54;;;;;;;11.02;9.88;;;;;;;4.97;67.82;101970.05;449462;117;922474;-76
2022/10/22 04:48:57;;;;;;;10.18;9.38;;;;;;;4.97;67.83;101970.05;449527;116;922714;-78
2022/10/22 04:50:00;;;;;;;10.62;9.87;;;;;;;4.98;67.85;101971.77;449456;118;922482;-77
2022/10/22 04:51:04;;;;;;;11.43;10.52;;;;;;;4.99;67.87;101976.17;449571;118;922499;-77
2022/10/22 04:52:07;;;;;;;10.00;9.19;;;;;;;5.00;67.88;101967.08;454566;116;922797;-77
2022/10/22 04:53:10;;;;;;;10.53;9.66;;;;;;;5.02;67.96;101973.17;457364;115;922571;-77
2022/10/22 04:54:13;;;;;;;9.75;9.03;;;;;;;5.03;67.84;101969.47;457402;114;922518;-77
2022/10/22 04:55:17;;;;;;;10.12;9.36;;;;;;;5.03;67.87;101974.03;457245;115;922497;-77
2022/10/22 04:56:24;;;;;;;9.86;9.11;;;;;;;5.03;67.93;101980.28;457237;115;930484;-77
2022/10/22 04:57:30;;;;;;;10.92;9.92;;;;;;;5.03;67.92;101980.28;457131;115;922707;-77
2022/10/22 04:58:34;;;;;;;10.53;9.65;;;;;;;5.03;67.92;101980.28;457190;116;922503;-76
2022/10/22 04:59:36;;;;;;;9.53;8.53;;;;;;;5.03;67.89;101974.88;457402;115;922560;-78
2022/10/22 05:00:39;;;;;;;10.07;9.15;;;;;;;5.04;67.88;101981.14;457410;115;922930;-77
2022/10/22 05:01:43;;;;;;;10.09;9.23;;;;;;;5.04;67.92;101983.84;457385;115;922730;-77
2022/10/22 05:02:50;;;;;;;10.34;9.51;;;;;;;5.04;67.91;101984.70;457347;116;922451;-75
2022/10/22 05:03:56;;;;;;;10.16;9.20;;;;;;;5.04;67.88;101987.41;457178;116;923224;-77
2022/10/22 05:04:59;;;;;;;9.25;8.54;;;;;;;5.03;67.81;101982.99;457149;116;922507;-77
2022/10/22 05:06:02;;;;;;;10.08;9.31;;;;;;;5.02;67.80;101986.69;457289;115;922539;-78